createdAt,value
2023-03-02T00:00:07.470Z,1.4
2023-03-02T00:01:23.595Z,1.2
2023-03-02T00:02:39.760Z,1.7
2023-03-02T00:03:55.873Z,1.4
2023-03-02T00:05:12.007Z,1.3
2023-03-02T00:06:28.147Z,1.6
2023-03-02T00:07:44.286Z,1.5
2023-03-02T00:09:00.435Z,1.4
2023-03-02T00:10:16.561Z,1.6
2023-03-02T00:11:32.699Z,1.5
2023-03-02T00:12:48.826Z,1.6
2023-03-02T00:14:04.955Z,1.3
2023-03-02T00:15:21.106Z,1.4
2023-03-02T00:16:37.248Z,1.4
2023-03-02T00:17:53.377Z,1.3
2023-03-02T00:19:09.507Z,1.7
2023-03-02T00:20:25.649Z,1.3
2023-03-02T00:21:41.781Z,1.4
2023-03-02T00:22:57.922Z,1.6
2023-03-02T00:24:14.063Z,1.5
2023-03-02T00:25:30.189Z,1.4
2023-03-02T00:26:46.391Z,1.4
2023-03-02T00:28:01.626Z,1.5
2023-03-02T00:29:17.804Z,1.6
2023-03-02T00:30:33.012Z,1.3
2023-03-02T00:31:49.150Z,1.5
2023-03-02T00:33:05.286Z,1.4
2023-03-02T00:34:21.416Z,1.5
2023-03-02T00:35:37.548Z,1.5
2023-03-02T00:36:53.682Z,1.4
2023-03-02T00:38:09.839Z,1.4
2023-03-02T00:39:25.966Z,1.4
2023-03-02T00:40:42.097Z,1.4
2023-03-02T00:41:58.234Z,1.4
2023-03-02T00:43:14.364Z,1.6
2023-03-02T00:44:30.518Z,1.3
2023-03-02T00:45:46.655Z,1.7
2023-03-02T00:47:02.789Z,1.6
2023-03-02T00:48:18.907Z,1.4
2023-03-02T00:49:35.042Z,1.5
2023-03-02T00:50:51.203Z,1.5
2023-03-02T00:52:07.335Z,1.2
2023-03-02T00:53:23.459Z,1.4
2023-03-02T00:54:39.600Z,1.4
2023-03-02T00:55:55.727Z,1.4
2023-03-02T00:57:11.878Z,1.3
2023-03-02T00:58:28.014Z,1.3
2023-03-02T00:59:44.147Z,1.4
2023-03-02T01:01:00.279Z,1.8
2023-03-02T01:02:16.466Z,1.6
2023-03-02T01:03:31.699Z,1.6
2023-03-02T01:04:46.906Z,1.4
2023-03-02T01:06:02.055Z,1.5
2023-03-02T01:07:18.190Z,1.4
2023-03-02T01:08:34.327Z,1.6
2023-03-02T01:09:50.460Z,1.4
2023-03-02T01:11:06.587Z,1.5
2023-03-02T01:12:22.736Z,1.4
2023-03-02T01:13:38.875Z,1.6
2023-03-02T01:14:55.011Z,1.4
2023-03-02T01:16:11.139Z,1.5
2023-03-02T01:17:27.280Z,1.3
2023-03-02T01:18:43.428Z,1.4
2023-03-02T01:19:59.552Z,1.4
2023-03-02T01:21:15.689Z,1.3
2023-03-02T01:22:31.816Z,1.4
2023-03-02T01:23:47.948Z,1.3
2023-03-02T01:25:04.097Z,1.5
2023-03-02T01:26:20.230Z,1.4
2023-03-02T01:27:36.368Z,1.5
2023-03-02T01:28:52.510Z,1.5
2023-03-02T01:30:08.637Z,1.5
2023-03-02T01:31:24.774Z,1.5
2023-03-02T01:32:40.921Z,1.3
2023-03-02T01:33:57.053Z,1.5
2023-03-02T01:35:13.186Z,1.4
2023-03-02T01:36:29.316Z,1.3
2023-03-02T01:37:45.460Z,1.4
2023-03-02T01:39:01.605Z,1.5
2023-03-02T01:40:17.738Z,1.3
2023-03-02T01:41:33.854Z,1.4
2023-03-02T01:42:50.005Z,1.5
2023-03-02T01:44:06.144Z,1.5
2023-03-02T01:45:22.280Z,1.5
2023-03-02T01:46:38.416Z,1.4
2023-03-02T01:47:54.533Z,1.3
2023-03-02T01:49:10.680Z,1.6
2023-03-02T01:50:26.813Z,1.4
2023-03-02T01:51:42.958Z,1.5
2023-03-02T01:52:59.143Z,1.3
2023-03-02T01:54:14.386Z,1.7
2023-03-02T01:55:29.595Z,1.3
2023-03-02T01:56:45.733Z,1.5
2023-03-02T01:58:01.860Z,1.4
2023-03-02T01:59:18.001Z,1.6
2023-03-02T02:00:34.133Z,1.6
2023-03-02T02:01:50.274Z,1.6
2023-03-02T02:03:06.413Z,1.4
2023-03-02T02:04:22.542Z,1.4
2023-03-02T02:05:38.672Z,1.5
2023-03-02T02:06:54.811Z,1.5
2023-03-02T02:08:10.952Z,1.3
2023-03-02T02:09:27.087Z,1.6
2023-03-02T02:10:43.224Z,1.3
2023-03-02T02:11:59.348Z,1.4
2023-03-02T02:13:15.505Z,1.4
2023-03-02T02:14:31.632Z,1.5
2023-03-02T02:15:47.760Z,1.6
2023-03-02T02:17:03.896Z,1.4
2023-03-02T02:18:20.033Z,1.4
2023-03-02T02:19:36.177Z,1.2
2023-03-02T02:20:52.309Z,1.6
2023-03-02T02:22:08.438Z,1.3
2023-03-02T02:23:24.576Z,1.3
2023-03-02T02:24:40.706Z,1.2
2023-03-02T02:25:56.861Z,1.4
2023-03-02T02:27:13.044Z,1.3
2023-03-02T02:28:28.282Z,1.5
2023-03-02T02:29:43.497Z,1.5
2023-03-02T02:30:59.627Z,1.5
2023-03-02T02:32:15.756Z,1.6
2023-03-02T02:33:31.893Z,1.4
2023-03-02T02:34:48.027Z,1.4
2023-03-02T02:36:04.173Z,1.4
2023-03-02T02:37:20.317Z,1.4
2023-03-02T02:38:36.444Z,1.3
2023-03-02T02:39:52.572Z,1.3
2023-03-02T02:41:08.703Z,1.3
2023-03-02T02:42:24.861Z,1.4
2023-03-02T02:43:40.990Z,1.4
2023-03-02T02:44:57.130Z,1.2
2023-03-02T02:46:13.254Z,1.4
2023-03-02T02:47:29.396Z,1.2
2023-03-02T02:48:45.527Z,1.5
2023-03-02T02:50:01.674Z,1.5
2023-03-02T02:51:17.799Z,1.2
2023-03-02T02:52:33.945Z,1.4
2023-03-02T02:53:50.074Z,1.3
2023-03-02T02:55:06.216Z,1.3
2023-03-02T02:56:22.349Z,1.5
2023-03-02T02:57:38.476Z,1.3
2023-03-02T02:58:54.620Z,1.3
2023-03-02T03:00:10.761Z,1.4
2023-03-02T03:01:26.962Z,1.4
2023-03-02T03:02:42.202Z,1.2
2023-03-02T03:03:58.387Z,1.6
2023-03-02T03:05:13.582Z,1.3
2023-03-02T03:06:29.717Z,1.4
2023-03-02T03:07:45.865Z,1.3
2023-03-02T03:09:02.000Z,1.4
2023-03-02T03:10:18.114Z,1.3
2023-03-02T03:11:34.270Z,1.4
2023-03-02T03:12:50.403Z,1.4
2023-03-02T03:14:06.537Z,1.3
2023-03-02T03:15:22.678Z,1.6
2023-03-02T03:16:38.795Z,1.4
2023-03-02T03:17:54.944Z,1.4
2023-03-02T03:19:11.093Z,1.4
2023-03-02T03:20:27.220Z,1.5
2023-03-02T03:21:43.344Z,1.2
2023-03-02T03:22:59.480Z,1.3
2023-03-02T03:24:15.640Z,1.2
2023-03-02T03:25:31.766Z,1.5
2023-03-02T03:26:47.890Z,1.5
2023-03-02T03:28:04.040Z,1.3
2023-03-02T03:29:20.154Z,1.5
2023-03-02T03:30:36.311Z,1.3
2023-03-02T03:31:52.446Z,1.3
2023-03-02T03:33:08.571Z,1.3
2023-03-02T03:34:24.711Z,1.2
2023-03-02T03:35:40.840Z,1.3
2023-03-02T03:36:57.052Z,1.3
2023-03-02T03:38:12.308Z,1.4
2023-03-02T03:39:27.507Z,1.3
2023-03-02T03:40:43.665Z,1.5
2023-03-02T03:41:59.801Z,1.4
2023-03-02T03:43:15.921Z,1.4
2023-03-02T03:44:32.057Z,1.3
2023-03-02T03:45:48.192Z,1.4
2023-03-02T03:47:04.339Z,1.4
2023-03-02T03:48:20.465Z,1.3
2023-03-02T03:49:36.613Z,1.3
2023-03-02T03:50:52.742Z,1.3
2023-03-02T03:52:08.874Z,1.4
2023-03-02T03:53:25.000Z,1.2
2023-03-02T03:54:41.152Z,1.5
2023-03-02T03:55:57.278Z,1.5
2023-03-02T03:57:13.424Z,1.4
2023-03-02T03:58:29.558Z,1.5
2023-03-02T03:59:45.691Z,1.3
2023-03-02T04:01:01.838Z,1.3
2023-03-02T04:02:17.955Z,1.2
2023-03-02T04:03:34.105Z,1.3
2023-03-02T04:04:50.232Z,1.4
2023-03-02T04:06:06.381Z,1.1
2023-03-02T04:07:22.512Z,1.4
2023-03-02T04:08:38.640Z,1.4
2023-03-02T04:09:54.779Z,1.5
2023-03-02T04:11:10.964Z,1.4
2023-03-02T04:12:26.217Z,1.3
2023-03-02T04:13:41.414Z,1.3
2023-03-02T04:14:56.565Z,1.4
2023-03-02T04:16:12.699Z,1.3
2023-03-02T04:17:28.825Z,1.5
2023-03-02T04:18:44.967Z,1.4
2023-03-02T04:20:01.102Z,1.3
2023-03-02T04:21:17.244Z,1.3
2023-03-02T04:22:33.380Z,1.3
2023-03-02T04:23:49.516Z,1.6
2023-03-02T04:25:05.639Z,1.5
2023-03-02T04:26:21.781Z,1.4
2023-03-02T04:27:37.928Z,1.5
2023-03-02T04:28:54.060Z,1.3
2023-03-02T04:30:10.191Z,1.4
2023-03-02T04:31:26.326Z,1.4
2023-03-02T04:32:42.450Z,1.4
2023-03-02T04:33:58.605Z,1.4
2023-03-02T04:35:14.728Z,1.4
2023-03-02T04:36:30.874Z,1.2
2023-03-02T04:37:46.998Z,1.3
2023-03-02T04:39:03.128Z,1.4
2023-03-02T04:40:19.277Z,1.3
2023-03-02T04:41:35.425Z,1.4
2023-03-02T04:42:51.552Z,1.6
2023-03-02T04:44:07.683Z,1.3
2023-03-02T04:45:23.816Z,1.4
2023-03-02T04:46:39.960Z,1.3
2023-03-02T04:47:56.103Z,1.3
2023-03-02T04:49:12.233Z,1.4
2023-03-02T04:50:28.364Z,1.4
2023-03-02T04:51:44.500Z,1.3
2023-03-02T04:53:00.634Z,1.3
2023-03-02T04:54:16.767Z,1.5
2023-03-02T04:55:32.909Z,1.4
2023-03-02T04:56:49.035Z,1.4
2023-03-02T04:58:05.174Z,1.5
2023-03-02T04:59:21.327Z,1.1
2023-03-02T05:00:37.457Z,1.3
2023-03-02T05:01:53.655Z,1.6
2023-03-02T05:03:08.890Z,1.6
2023-03-02T05:04:24.095Z,1.3
2023-03-02T05:05:40.228Z,1.5
2023-03-02T05:08:12.494Z,1.3
2023-03-02T05:09:28.647Z,1.4
2023-03-02T05:10:44.770Z,1.4
2023-03-02T05:12:00.905Z,1.4
2023-03-02T05:13:17.030Z,1.4
2023-03-02T05:14:33.172Z,1.4
2023-03-02T05:15:49.321Z,1.3
2023-03-02T05:17:05.451Z,1.3
2023-03-02T05:18:21.579Z,1.3
2023-03-02T05:19:37.716Z,1.6
2023-03-02T05:20:53.850Z,1.2
2023-03-02T05:22:09.988Z,1.6
2023-03-02T05:23:26.136Z,1.3
2023-03-02T05:24:42.270Z,1.6
2023-03-02T05:25:58.404Z,1.5
2023-03-02T05:27:14.519Z,1.3
2023-03-02T05:28:30.675Z,1.5
2023-03-02T05:29:46.807Z,1.3
2023-03-02T05:31:02.946Z,1.3
2023-03-02T05:32:19.073Z,1.3
2023-03-02T05:33:35.204Z,1.4
2023-03-02T05:34:51.358Z,1.4
2023-03-02T05:36:07.548Z,1.5
2023-03-02T05:37:22.789Z,1.4
2023-03-02T05:38:38.984Z,1.6
2023-03-02T05:39:54.183Z,1.5
2023-03-02T05:41:10.313Z,1.5
2023-03-02T05:42:26.445Z,1.5
2023-03-02T05:43:42.583Z,1.3
2023-03-02T05:44:58.734Z,1.3
2023-03-02T05:46:14.859Z,1.3
2023-03-02T05:47:31.001Z,1.4
2023-03-02T05:48:47.123Z,1.5
2023-03-02T05:50:03.257Z,1.5
2023-03-02T05:51:19.422Z,1.7
2023-03-02T05:52:35.552Z,1.7
2023-03-02T05:53:51.685Z,1.9
2023-03-02T05:55:07.810Z,2
2023-03-02T05:56:23.942Z,1.9
2023-03-02T05:57:40.095Z,1.9
2023-03-02T05:58:56.218Z,2
2023-03-02T06:00:12.364Z,1.8
2023-03-02T06:01:28.492Z,2
2023-03-02T06:02:44.622Z,1.8
2023-03-02T06:04:00.762Z,1.9
2023-03-02T06:05:16.895Z,2.1
2023-03-02T06:06:33.044Z,2
2023-03-02T06:07:49.166Z,2
2023-03-02T06:09:05.294Z,2.3
2023-03-02T06:10:21.440Z,2.2
2023-03-02T06:11:37.637Z,2.2
2023-03-02T06:12:52.884Z,2.4
2023-03-02T06:14:08.092Z,2.4
2023-03-02T06:15:24.216Z,2.3
2023-03-02T06:16:40.360Z,2.4
2023-03-02T06:17:56.490Z,2.2
2023-03-02T06:19:12.628Z,2.3
2023-03-02T06:20:28.766Z,2.2
2023-03-02T06:21:44.904Z,2.1
2023-03-02T06:23:01.043Z,2.3
2023-03-02T06:24:17.169Z,2.1
2023-03-02T06:25:33.294Z,2.3
2023-03-02T06:26:49.454Z,2.2
2023-03-02T06:28:05.577Z,2.3
2023-03-02T06:29:21.714Z,2.2
2023-03-02T06:30:37.845Z,2.3
2023-03-02T06:31:53.983Z,2
2023-03-02T06:33:10.139Z,2.3
2023-03-02T06:34:26.267Z,2.3
2023-03-02T06:35:42.398Z,2.5
2023-03-02T06:36:58.531Z,2.2
2023-03-02T06:38:14.669Z,1.9
2023-03-02T06:39:30.818Z,2.2
2023-03-02T06:40:46.933Z,2.3
2023-03-02T06:42:03.084Z,2.2
2023-03-02T06:43:19.203Z,2.2
2023-03-02T06:44:35.339Z,2.2
2023-03-02T06:45:51.557Z,2.2
2023-03-02T06:47:06.784Z,2.4
2023-03-02T06:48:21.993Z,2.6
2023-03-02T06:49:38.134Z,2.5
2023-03-02T06:50:54.277Z,2.2
2023-03-02T06:52:10.400Z,2.2
2023-03-02T06:53:26.533Z,2.2
2023-03-02T06:54:42.674Z,2.3
2023-03-02T06:55:58.818Z,2.6
2023-03-02T06:57:14.941Z,2.2
2023-03-02T06:58:31.083Z,2.4
2023-03-02T06:59:47.222Z,2.2
2023-03-02T07:01:03.336Z,2.3
2023-03-02T07:02:19.501Z,2.4
2023-03-02T07:03:35.627Z,2.5
2023-03-02T07:04:51.765Z,2.2
2023-03-02T07:06:07.892Z,2.2
2023-03-02T07:07:24.029Z,2.1
2023-03-02T07:08:40.176Z,2.2
2023-03-02T07:09:56.305Z,2.4
2023-03-02T07:11:12.439Z,2.3
2023-03-02T07:12:28.583Z,2.3
2023-03-02T07:13:44.716Z,2.2
2023-03-02T07:15:00.861Z,2.5
2023-03-02T07:16:16.978Z,2.5
2023-03-02T07:17:33.111Z,2.3
2023-03-02T07:18:49.262Z,2.2
2023-03-02T07:20:05.442Z,2
2023-03-02T07:21:20.677Z,2.6
2023-03-02T07:22:36.877Z,2.3
2023-03-02T07:23:52.080Z,2.2
2023-03-02T07:25:08.214Z,2.1
2023-03-02T07:26:24.356Z,2.1
2023-03-02T07:27:40.496Z,2.1
2023-03-02T07:28:56.626Z,2.2
2023-03-02T07:30:12.746Z,2.4
2023-03-02T07:31:28.900Z,2.3
2023-03-02T07:32:45.046Z,2.1
2023-03-02T07:34:01.178Z,2.1
2023-03-02T07:35:17.305Z,2.4
2023-03-02T07:36:33.436Z,2.3
2023-03-02T07:37:49.591Z,2
2023-03-02T07:39:05.709Z,2.2
2023-03-02T07:40:21.854Z,2.2
2023-03-02T07:41:37.980Z,2.1
2023-03-02T07:42:54.120Z,2.2
2023-03-02T07:44:10.263Z,2
2023-03-02T07:45:26.387Z,2.2
2023-03-02T07:46:42.537Z,2.3
2023-03-02T07:47:58.670Z,2.1
2023-03-02T07:49:14.790Z,2.2
2023-03-02T07:50:30.946Z,2.4
2023-03-02T07:51:47.071Z,2
2023-03-02T07:53:03.207Z,2.1
2023-03-02T07:54:19.345Z,2.1
2023-03-02T07:55:35.535Z,2.3
2023-03-02T07:56:50.795Z,2.2
2023-03-02T07:58:06.006Z,2.3
2023-03-02T07:59:22.137Z,2.2
2023-03-02T08:00:38.291Z,2.1
2023-03-02T08:01:54.415Z,2.4
2023-03-02T08:03:10.540Z,2.1
2023-03-02T08:04:26.690Z,1.9
2023-03-02T08:05:42.825Z,2
2023-03-02T08:06:58.959Z,2.1
2023-03-02T08:08:15.093Z,2.1
2023-03-02T08:09:31.222Z,2.3
2023-03-02T08:10:47.370Z,2.1
2023-03-02T08:12:03.488Z,1.9
2023-03-02T08:13:19.648Z,2
2023-03-02T08:14:35.771Z,1.9
2023-03-02T08:15:51.912Z,2.2
2023-03-02T08:17:08.044Z,2.2
2023-03-02T08:18:24.187Z,2.1
2023-03-02T08:19:40.327Z,1.9
2023-03-02T08:20:56.457Z,1.9
2023-03-02T08:22:12.596Z,1.9
2023-03-02T08:23:28.723Z,2.1
2023-03-02T08:24:44.852Z,1.9
2023-03-02T08:26:00.998Z,1.9
2023-03-02T08:27:17.143Z,2.1
2023-03-02T08:28:33.271Z,2
2023-03-02T08:29:49.463Z,2
2023-03-02T08:31:04.702Z,1.9
2023-03-02T08:32:19.908Z,2
2023-03-02T08:33:35.065Z,2
2023-03-02T08:34:51.210Z,2
2023-03-02T08:36:07.346Z,2
2023-03-02T08:37:23.479Z,2
2023-03-02T08:38:39.604Z,1.7
2023-03-02T08:39:55.734Z,2
2023-03-02T08:41:11.889Z,1.9
2023-03-02T08:42:28.027Z,1.8
2023-03-02T08:43:44.148Z,1.8
2023-03-02T08:45:00.299Z,1.8
2023-03-02T08:46:16.428Z,1.5
2023-03-02T08:47:32.576Z,1.6
2023-03-02T08:48:48.701Z,1.8
2023-03-02T08:50:04.844Z,2
2023-03-02T08:51:20.972Z,1.7
2023-03-02T08:52:37.108Z,1.7
2023-03-02T08:53:53.259Z,1.8
2023-03-02T08:55:09.377Z,1.7
2023-03-02T08:56:25.519Z,1.8
2023-03-02T08:57:41.662Z,1.5
2023-03-02T08:58:57.775Z,1.8
2023-03-02T09:00:13.932Z,1.9
2023-03-02T09:01:30.068Z,1.7
2023-03-02T09:02:46.198Z,1.8
2023-03-02T09:04:02.332Z,1.7
2023-03-02T09:05:18.462Z,1.6
2023-03-02T09:06:34.616Z,1.8
2023-03-02T09:07:50.756Z,1.6
2023-03-02T09:09:06.888Z,1.5
2023-03-02T09:10:23.009Z,1.5
2023-03-02T09:11:39.153Z,1.8
2023-03-02T09:12:55.286Z,1.7
2023-03-02T09:14:11.420Z,1.6
2023-03-02T09:15:27.568Z,1.8
2023-03-02T09:16:43.685Z,1.6
2023-03-02T09:17:59.824Z,1.5
2023-03-02T09:19:15.973Z,1.8
2023-03-02T09:20:32.173Z,1.8
2023-03-02T09:21:47.403Z,1.7
2023-03-02T09:23:02.605Z,1.6
2023-03-02T09:24:18.746Z,1.7
2023-03-02T09:25:34.885Z,1.6
2023-03-02T09:26:51.014Z,1.5
2023-03-02T09:28:07.140Z,1.7
2023-03-02T09:29:23.292Z,1.6
2023-03-02T09:30:39.428Z,1.7
2023-03-02T09:31:55.555Z,1.6
2023-03-02T09:33:11.696Z,1.7
2023-03-02T09:34:27.819Z,1.7
2023-03-02T09:35:43.981Z,1.7
2023-03-02T09:37:00.118Z,1.6
2023-03-02T09:38:16.242Z,1.6
2023-03-02T09:39:32.366Z,1.4
2023-03-02T09:40:48.509Z,1.4
2023-03-02T09:42:04.659Z,1.7
2023-03-02T09:43:20.780Z,1.6
2023-03-02T09:44:36.925Z,1.5
2023-03-02T09:45:53.065Z,1.5
2023-03-02T09:47:09.190Z,1.8
2023-03-02T09:48:25.338Z,1.6
2023-03-02T09:49:41.476Z,1.3
2023-03-02T09:50:57.609Z,1.7
2023-03-02T09:52:13.738Z,1.4
2023-03-02T09:53:29.872Z,1.4
2023-03-02T09:54:46.085Z,1.4
2023-03-02T09:56:01.321Z,1.4
2023-03-02T09:57:17.498Z,1.3
2023-03-02T09:58:32.708Z,1.4
2023-03-02T09:59:48.839Z,1.5
2023-03-02T10:01:04.978Z,1.7
2023-03-02T10:02:21.114Z,1.6
2023-03-02T10:03:37.238Z,1.4
2023-03-02T10:04:53.394Z,1.4
2023-03-02T10:06:09.533Z,1.6
2023-03-02T10:07:25.664Z,1.5
2023-03-02T10:08:41.804Z,1.4
2023-03-02T10:09:57.924Z,1.6
2023-03-02T10:11:14.078Z,1.4
2023-03-02T10:12:30.201Z,1.5
2023-03-02T10:13:46.353Z,1.4
2023-03-02T10:15:02.488Z,1.4
2023-03-02T10:16:18.619Z,1.4
2023-03-02T10:17:34.767Z,1.5
2023-03-02T10:18:50.895Z,1.5
2023-03-02T10:20:07.034Z,1.4
2023-03-02T10:21:23.168Z,1.3
2023-03-02T10:22:39.293Z,1.4
2023-03-02T10:23:55.435Z,1.5
2023-03-02T10:25:11.584Z,1.5
2023-03-02T10:26:27.714Z,1.3
2023-03-02T10:27:43.845Z,1.5
2023-03-02T10:28:59.969Z,1.2
2023-03-02T10:30:16.181Z,1.4
2023-03-02T10:31:31.418Z,1.3
2023-03-02T10:32:46.632Z,1.5
2023-03-02T10:34:02.768Z,1.4
2023-03-02T10:35:18.899Z,1.4
2023-03-02T10:36:35.033Z,1.4
2023-03-02T10:37:51.187Z,1.5
2023-03-02T10:39:07.312Z,1.3
2023-03-02T10:40:23.463Z,1.6
2023-03-02T10:41:39.596Z,1.4
2023-03-02T10:42:55.723Z,1.4
2023-03-02T10:44:11.863Z,1.3
2023-03-02T10:45:27.995Z,1.4
2023-03-02T10:46:44.134Z,1.4
2023-03-02T10:48:00.283Z,1.5
2023-03-02T10:49:16.414Z,1.5
2023-03-02T10:50:32.542Z,1.5
2023-03-02T10:51:48.672Z,1.1
2023-03-02T10:53:04.829Z,1.5
2023-03-02T10:54:20.953Z,1.3
2023-03-02T10:55:37.091Z,1.2
2023-03-02T10:56:53.220Z,1.4
2023-03-02T10:58:09.350Z,1.2
2023-03-02T10:59:25.496Z,1.2
2023-03-02T11:00:41.639Z,1.2
2023-03-02T11:01:57.776Z,1.4
2023-03-02T11:03:13.904Z,1.3
2023-03-02T11:04:30.103Z,1.3
2023-03-02T11:05:45.330Z,1.1
2023-03-02T11:07:00.540Z,1.3
2023-03-02T11:08:16.682Z,1.2
2023-03-02T11:09:32.822Z,1.2
2023-03-02T11:10:48.971Z,1.2
2023-03-02T11:12:05.087Z,1.4
2023-03-02T11:13:21.228Z,1.3
2023-03-02T11:14:37.373Z,1.2
2023-03-02T11:15:53.514Z,1.1
2023-03-02T11:18:25.784Z,1.1
2023-03-02T11:19:41.918Z,1.3
2023-03-02T11:20:58.058Z,1.3
2023-03-02T11:22:14.194Z,1.2
2023-03-02T11:23:30.332Z,1.3
2023-03-02T11:24:46.473Z,1.2
2023-03-02T11:26:02.608Z,1.1
2023-03-02T11:27:18.733Z,1.4
2023-03-02T11:28:34.880Z,1.2
2023-03-02T11:29:51.012Z,1.3
2023-03-02T11:31:07.150Z,1.3
2023-03-02T11:32:23.286Z,1.1
2023-03-02T11:33:39.417Z,1.2
2023-03-02T11:34:55.557Z,1
2023-03-02T11:36:11.705Z,1.2
2023-03-02T11:37:27.832Z,1.3
2023-03-02T11:38:44.031Z,1.2
2023-03-02T11:39:59.269Z,1.2
2023-03-02T11:41:15.448Z,1.4
2023-03-02T11:42:30.656Z,1.3
2023-03-02T11:43:46.787Z,1.2
2023-03-02T11:45:02.954Z,1
2023-03-02T11:46:19.069Z,1.2
2023-03-02T11:47:35.211Z,1.1
2023-03-02T11:48:51.339Z,1.2
2023-03-02T11:50:07.482Z,1.2
2023-03-02T11:51:23.635Z,1.3
2023-03-02T11:52:39.753Z,1.1
2023-03-02T11:53:55.898Z,1.3
2023-03-02T11:55:12.030Z,1.4
2023-03-02T11:56:28.161Z,1.3
2023-03-02T11:57:44.305Z,1.4
2023-03-02T11:59:00.451Z,1.2
2023-03-02T12:00:16.580Z,1.3
2023-03-02T12:01:32.718Z,1.5
2023-03-02T12:02:48.843Z,1.4
2023-03-02T12:04:04.984Z,1.5
2023-03-02T12:05:21.125Z,1.5
2023-03-02T12:06:37.254Z,1.5
2023-03-02T12:07:53.393Z,1.7
2023-03-02T12:09:09.532Z,1.4
2023-03-02T12:10:25.677Z,1.5
2023-03-02T12:11:41.813Z,1.3
2023-03-02T12:12:57.938Z,1.3
2023-03-02T12:14:14.144Z,1.3
2023-03-02T12:15:29.400Z,1
2023-03-02T12:16:44.611Z,1.4
2023-03-02T12:17:59.743Z,1.2
2023-03-02T12:20:32.029Z,1.3
2023-03-02T12:21:48.162Z,1.2
2023-03-02T12:23:04.308Z,1.4
2023-03-02T12:24:20.435Z,1.1
2023-03-02T12:25:36.589Z,1.3
2023-03-02T12:26:52.715Z,1.1
2023-03-02T12:28:08.843Z,1
2023-03-02T12:29:24.986Z,1.2
2023-03-02T12:30:41.105Z,1.3
2023-03-02T12:31:57.271Z,1.1
2023-03-02T12:33:13.389Z,1.2
2023-03-02T12:34:29.535Z,1.1
2023-03-02T12:35:45.672Z,1.2
2023-03-02T12:37:01.805Z,1.1
2023-03-02T12:38:17.946Z,1.3
2023-03-02T12:39:34.083Z,1.3
2023-03-02T12:40:50.203Z,1.1
2023-03-02T12:42:06.345Z,1.1
2023-03-02T12:43:22.471Z,1.2
2023-03-02T12:44:38.627Z,1.2
2023-03-02T12:45:54.757Z,1.1
2023-03-02T12:47:10.898Z,1.1
2023-03-02T12:48:27.030Z,1.1
2023-03-02T12:49:43.168Z,1.1
2023-03-02T12:50:59.309Z,1
2023-03-02T12:52:15.433Z,1.1
2023-03-02T12:53:31.568Z,1.1
2023-03-02T12:54:47.712Z,1.2
2023-03-02T12:56:03.837Z,1.1
2023-03-02T12:57:19.986Z,1.2
2023-03-02T12:58:36.126Z,1.1
2023-03-02T12:59:52.259Z,1.1
2023-03-02T13:01:08.399Z,1.4
2023-03-02T13:02:24.517Z,1.1
2023-03-02T13:03:40.664Z,1
2023-03-02T13:04:56.859Z,0.9
2023-03-02T13:06:12.095Z,1.2
2023-03-02T13:07:27.312Z,1.1
2023-03-02T13:08:43.451Z,1.2
2023-03-02T13:09:59.577Z,1.2
2023-03-02T13:11:15.719Z,1.2
2023-03-02T13:12:31.836Z,1.1
2023-03-02T13:13:47.982Z,1
2023-03-02T13:15:04.131Z,1
2023-03-02T13:16:20.258Z,1.1
2023-03-02T13:17:36.395Z,1.1
2023-03-02T13:18:52.519Z,1.2
2023-03-02T13:20:08.667Z,1.3
2023-03-02T13:21:24.803Z,1.2
2023-03-02T13:22:40.940Z,1.1
2023-03-02T13:23:57.071Z,1
2023-03-02T13:25:13.199Z,1.2
2023-03-02T13:26:29.354Z,1.2
2023-03-02T13:27:45.498Z,1.2
2023-03-02T13:29:01.618Z,1.2
2023-03-02T13:30:17.748Z,1.2
2023-03-02T13:31:33.890Z,1.2
2023-03-02T13:32:50.045Z,1.6
2023-03-02T13:34:06.177Z,1.3
2023-03-02T13:35:22.309Z,1.2
2023-03-02T13:37:54.575Z,1.1
2023-03-02T13:39:10.785Z,1.3
2023-03-02T13:40:26.030Z,1.1
2023-03-02T13:41:41.233Z,1.1
2023-03-02T13:42:57.359Z,1.1
2023-03-02T13:44:13.511Z,1.2
2023-03-02T13:45:29.640Z,1.1
2023-03-02T13:46:45.759Z,1
2023-03-02T13:48:01.906Z,1.1
2023-03-02T13:49:18.043Z,1.2
2023-03-02T13:50:34.180Z,1.1
2023-03-02T13:53:06.452Z,1.2
2023-03-02T13:54:22.573Z,1.2
2023-03-02T13:55:38.740Z,1.4
2023-03-02T13:56:54.856Z,1.1
2023-03-02T13:58:10.999Z,1.2
2023-03-02T13:59:27.133Z,1
2023-03-02T14:00:43.269Z,1
2023-03-02T14:01:59.404Z,1.4
2023-03-02T14:03:15.551Z,1.1
2023-03-02T14:04:31.682Z,1.1
2023-03-02T14:05:47.819Z,1.3
2023-03-02T14:07:03.952Z,1
2023-03-02T14:08:20.091Z,1.1
2023-03-02T14:09:36.225Z,1
2023-03-02T14:10:52.369Z,0.9
2023-03-02T14:12:08.494Z,1.2
2023-03-02T14:13:24.686Z,1.2
2023-03-02T14:14:39.929Z,1
2023-03-02T14:15:56.114Z,1.1
2023-03-02T14:17:11.331Z,1.1
2023-03-02T14:18:27.473Z,1.1
2023-03-02T14:19:43.607Z,1.1
2023-03-02T14:20:59.722Z,1.1
2023-03-02T14:22:15.856Z,1.1
2023-03-02T14:23:31.989Z,1.3
2023-03-02T14:24:48.136Z,1.1
2023-03-02T14:26:04.279Z,1.2
2023-03-02T14:27:20.404Z,1.1
2023-03-02T14:28:36.550Z,1.2
2023-03-02T14:29:52.673Z,1
2023-03-02T14:31:08.837Z,0.9
2023-03-02T14:32:24.960Z,1
2023-03-02T14:33:41.086Z,1.1
2023-03-02T14:34:57.222Z,1
2023-03-02T14:36:13.352Z,1
2023-03-02T14:37:29.509Z,1.1
2023-03-02T14:38:45.643Z,1.2
2023-03-02T14:40:01.771Z,1.1
2023-03-02T14:41:17.911Z,1.2
2023-03-02T14:42:34.046Z,1.3
2023-03-02T14:43:50.196Z,1.2
2023-03-02T14:45:06.326Z,1.3
2023-03-02T14:46:22.453Z,1.3
2023-03-02T14:47:38.583Z,1.3
2023-03-02T14:48:54.792Z,1.5
2023-03-02T14:50:10.024Z,1.5
2023-03-02T14:51:25.232Z,1.5
2023-03-02T14:52:41.371Z,1.5
2023-03-02T14:53:57.500Z,1.4
2023-03-02T14:55:13.633Z,1.3
2023-03-02T14:56:29.777Z,1.2
2023-03-02T14:57:45.912Z,1.3
2023-03-02T14:59:02.048Z,1.5
2023-03-02T15:00:18.181Z,1.4
2023-03-02T15:01:34.314Z,1.4
2023-03-02T15:02:50.461Z,1.3
2023-03-02T15:04:06.597Z,1.3
2023-03-02T15:05:22.717Z,1.1
2023-03-02T15:06:38.860Z,1.3
2023-03-02T15:07:55.009Z,1.5
2023-03-02T15:09:11.140Z,1.4
2023-03-02T15:10:27.265Z,1.3
2023-03-02T15:11:43.397Z,1.2
2023-03-02T15:12:59.555Z,1
2023-03-02T15:14:15.690Z,1.3
2023-03-02T15:15:31.823Z,1.3
2023-03-02T15:16:47.942Z,1.3
2023-03-02T15:18:04.085Z,1.4
2023-03-02T15:19:20.232Z,1.3
2023-03-02T15:20:36.361Z,1.3
2023-03-02T15:21:52.500Z,1.4
2023-03-02T15:23:08.701Z,1.4
2023-03-02T15:24:23.924Z,1.4
2023-03-02T15:25:39.204Z,1.6
2023-03-02T15:26:54.437Z,1.4
2023-03-02T15:28:09.651Z,1.4
2023-03-02T15:29:25.792Z,1.5
2023-03-02T15:30:41.913Z,1.3
2023-03-02T15:31:58.039Z,1.2
2023-03-02T15:33:14.190Z,1.5
2023-03-02T15:34:30.334Z,1.4
2023-03-02T15:35:46.469Z,1.5
2023-03-02T15:37:02.591Z,1.3
2023-03-02T15:38:18.734Z,1.3
2023-03-02T15:39:34.877Z,1.2
2023-03-02T15:40:51.008Z,1.3
2023-03-02T15:42:07.137Z,1.2
2023-03-02T15:43:23.280Z,1.2
2023-03-02T15:44:39.418Z,1.4
2023-03-02T15:45:55.551Z,1.4
2023-03-02T15:47:11.695Z,1.2
2023-03-02T15:48:27.834Z,1.2
2023-03-02T15:49:43.956Z,1.3
2023-03-02T15:51:00.096Z,1.3
2023-03-02T15:52:16.234Z,1.4
2023-03-02T15:53:32.368Z,1.1
2023-03-02T15:54:48.502Z,1.2
2023-03-02T15:56:04.639Z,1.2
2023-03-02T15:57:20.777Z,1.3
2023-03-02T15:58:36.925Z,1.2
2023-03-02T15:59:53.116Z,1.1
2023-03-02T16:01:08.317Z,1.2
2023-03-02T16:02:24.461Z,1.3
2023-03-02T16:03:40.595Z,1.2
2023-03-02T16:04:56.740Z,1.1
2023-03-02T16:06:12.872Z,1.3
2023-03-02T16:07:29.003Z,1.2
2023-03-02T16:08:45.133Z,1.4
2023-03-02T16:10:01.289Z,1.3
2023-03-02T16:11:17.412Z,1.4
2023-03-02T16:12:33.560Z,1.3
2023-03-02T16:13:49.695Z,1.1
2023-03-02T16:15:05.811Z,1.3
2023-03-02T16:16:21.965Z,1.3
2023-03-02T16:17:38.111Z,1.2
2023-03-02T16:18:54.228Z,1.2
2023-03-02T16:20:10.370Z,1.2
2023-03-02T16:21:26.503Z,1.1
2023-03-02T16:22:42.658Z,1.2
2023-03-02T16:23:58.775Z,1.4
2023-03-02T16:25:14.913Z,1.3
2023-03-02T16:26:31.059Z,1.2
2023-03-02T16:27:47.184Z,1.5
2023-03-02T16:29:03.331Z,1.1
2023-03-02T16:30:19.458Z,1.3
2023-03-02T16:31:35.592Z,1.3
2023-03-02T16:32:51.781Z,1.2
2023-03-02T16:34:07.059Z,1.2
2023-03-02T16:35:22.247Z,1.2
2023-03-02T16:36:37.413Z,1.2
2023-03-02T16:37:53.556Z,1.3
2023-03-02T16:39:09.679Z,1.2
2023-03-02T16:40:25.822Z,1.4
2023-03-02T16:41:41.958Z,1.3
2023-03-02T16:42:58.094Z,1
2023-03-02T16:44:14.244Z,1.1
2023-03-02T16:45:30.364Z,1.3
2023-03-02T16:46:46.000Z,1.2
2023-03-02T16:49:18.768Z,1
2023-03-02T16:50:34.913Z,1.1
2023-03-02T16:51:51.056Z,1.4
2023-03-02T16:53:07.183Z,1.2
2023-03-02T16:54:23.317Z,1.1
2023-03-02T16:55:39.452Z,1
2023-03-02T16:56:55.603Z,0.9
2023-03-02T16:58:11.727Z,1.2
2023-03-02T16:59:27.872Z,1.1
2023-03-02T17:00:43.995Z,1
2023-03-02T17:02:00.132Z,1
2023-03-02T17:03:16.285Z,1.1
2023-03-02T17:04:32.419Z,1
2023-03-02T17:05:48.544Z,1.1
2023-03-02T17:07:04.670Z,1.1
2023-03-02T17:08:20.811Z,1.2
2023-03-02T17:09:36.953Z,1.2
2023-03-02T17:10:53.089Z,1.2
2023-03-02T17:12:09.219Z,1.2
2023-03-02T17:13:25.355Z,1.2
2023-03-02T17:14:41.496Z,1.1
2023-03-02T17:15:57.639Z,1.1
2023-03-02T17:17:13.779Z,1.1
2023-03-02T17:18:29.895Z,1
2023-03-02T17:19:46.031Z,1
2023-03-02T17:21:02.171Z,1.1
2023-03-02T17:22:18.315Z,1.1
2023-03-02T17:23:34.504Z,1.1
2023-03-02T17:24:49.753Z,1.1
2023-03-02T17:26:04.959Z,1
2023-03-02T17:27:21.087Z,1
2023-03-02T17:28:37.223Z,1.1
2023-03-02T17:29:53.356Z,0.9
2023-03-02T17:31:09.482Z,1
2023-03-02T17:32:25.639Z,1
2023-03-02T17:33:41.774Z,1.2
2023-03-02T17:34:57.909Z,1.1
2023-03-02T17:36:14.044Z,0.9
2023-03-02T17:38:46.327Z,1.1
2023-03-02T17:40:02.459Z,1